Time;durP1;ratioP1;P1;durP2;ratioP2;P2;SDS_P1;SDS_P2;PMS_P1;PMS_P2;Temp;Humidity;BMP_temperature;BMP_pressure;BME280_temperature;BME280_humidity;BME280_pressure;Samples;Min_cycle;Max_cycle;Signal;HPM_P1;HPM_P2
2022/10/19 00:01:28;;;;;;;6.43;5.82;;;;;;;;;;4962362;28;20095;-61
2022/10/19 00:03:54;;;;;;;6.57;4.88;;;;;;;;;;4961036;28;20114;-63
2022/10/19 00:06:26;;;;;;;6.47;5.82;;;;;;;;;;4961150;28;20470;-62
2022/10/19 00:08:52;;;;;;;6.35;5.75;;;;;;;;;;4956995;28;20031;-62
2022/10/19 00:11:17;;;;;;;7.20;5.30;;;;;;;;;;4960197;28;20094;-62
2022/10/19 00:13:43;;;;;;;6.13;5.10;;;;;;;;;;4959689;28;20033;-63
2022/10/19 00:16:11;;;;;;;5.80;5.20;;;;;;;;;;4956199;28;20545;-62
2022/10/19 00:18:36;;;;;;;5.53;5.03;;;;;;;;;;4960049;28;20045;-62
2022/10/19 00:21:02;;;;;;;6.18;5.68;;;;;;;;;;4963121;28;20038;-61
2022/10/19 00:23:27;;;;;;;6.88;5.65;;;;;;;;;;4958013;28;20140;-62
2022/10/19 00:25:53;;;;;;;5.82;5.13;;;;;;;;;;4958320;28;20032;-62
2022/10/19 00:28:18;;;;;;;6.30;5.70;;;;;;;;;;4954515;28;20261;-61
2022/10/19 00:30:44;;;;;;;5.35;4.85;;;;;;;;;;4957179;28;20026;-62
2022/10/19 00:33:09;;;;;;;5.88;5.38;;;;;;;;;;4957401;28;20498;-62
2022/10/19 00:35:38;;;;;;;5.45;4.95;;;;;;;;;;4960315;28;20672;-62
2022/10/19 00:38:04;;;;;;;6.32;4.95;;;;;;;;;;4960132;28;20047;-62
2022/10/19 00:40:35;;;;;;;4.97;4.47;;;;;;;;;;4958573;28;20031;-62
2022/10/19 00:43:01;;;;;;;5.93;5.43;;;;;;;;;;4960937;28;20045;-62
2022/10/19 00:45:26;;;;;;;6.07;5.53;;;;;;;;;;4957859;28;20486;-62
2022/10/19 00:47:52;;;;;;;6.30;4.85;;;;;;;;;;4956936;28;20109;-62
2022/10/19 00:50:17;;;;;;;5.40;4.88;;;;;;;;;;4955889;28;20448;-61
2022/10/19 00:52:42;;;;;;;5.95;5.13;;;;;;;;;;4956734;28;20463;-62
2022/10/19 00:55:08;;;;;;;6.40;5.00;;;;;;;;;;4957752;28;20027;-61
2022/10/19 00:57:34;;;;;;;7.72;5.63;;;;;;;;;;4959172;28;20050;-62
2022/10/19 01:00:00;;;;;;;5.97;5.47;;;;;;;;;;4957470;28;20486;-61
2022/10/19 01:02:25;;;;;;;7.85;5.53;;;;;;;;;;4956278;28;20391;-62
2022/10/19 01:04:51;;;;;;;6.70;5.82;;;;;;;;;;4958800;28;20158;-62
2022/10/19 01:07:17;;;;;;;8.90;6.32;;;;;;;;;;4957200;28;20437;-62
2022/10/19 01:09:45;;;;;;;7.47;6.40;;;;;;;;;;4955374;28;20105;-65
2022/10/19 01:12:11;;;;;;;8.15;6.15;;;;;;;;;;4956952;28;20043;-61
2022/10/19 01:14:45;;;;;;;6.93;6.30;;;;;;;;;;4958845;28;20329;-62
2022/10/19 01:17:10;;;;;;;7.32;5.95;;;;;;;;;;4958100;28;20500;-62
2022/10/19 01:19:35;;;;;;;7.03;6.20;;;;;;;;;;4956077;28;20571;-62
2022/10/19 01:22:30;;;;;;;7.22;6.53;;;;;;;;;;4955582;28;20792;-61
2022/10/19 01:24:58;;;;;;;6.88;5.90;;;;;;;;;;4932635;28;20146;-61
2022/10/19 01:27:26;;;;;;;7.55;6.60;;;;;;;;;;4937389;28;20584;-63
2022/10/19 01:29:51;;;;;;;8.38;7.10;;;;;;;;;;4936231;28;20035;-62
2022/10/19 01:32:37;;;;;;;8.23;7.32;;;;;;;;;;4937229;28;20917;-62
2022/10/19 01:35:02;;;;;;;;;;;;;;;;;;4935006;28;20039;-61
2022/10/19 01:37:27;;;;;;;7.65;6.60;;;;;;;;;;4934128;28;19956;-62
2022/10/19 01:39:55;;;;;;;8.65;7.28;;;;;;;;;;4932280;28;20478;-62
2022/10/19 01:42:21;;;;;;;8.25;7.30;;;;;;;;;;4935334;28;20102;-64
2022/10/19 01:44:54;;;;;;;9.50;6.82;;;;;;;;;;4939097;28;20392;-63
2022/10/19 01:47:29;;;;;;;7.18;6.55;;;;;;;;;;4938416;28;20050;-62
2022/10/19 01:49:54;;;;;;;;;;;;;;;;;;4937199;28;20039;-62
2022/10/19 01:52:20;;;;;;;8.80;6.93;;;;;;;;;;4936218;28;19925;-62
2022/10/19 01:54:50;;;;;;;8.70;6.88;;;;;;;;;;4936390;28;20418;-63
2022/10/19 01:57:18;;;;;;;7.53;6.72;;;;;;;;;;4935009;28;20122;-61
2022/10/19 01:59:44;;;;;;;8.90;8.02;;;;;;;;;;4936570;28;20089;-62
2022/10/19 02:02:10;;;;;;;11.55;7.43;;;;;;;;;;4953463;28;20464;-62
2022/10/19 02:04:36;;;;;;;8.70;7.90;;;;;;;;;;4957217;28;20027;-61
2022/10/19 02:07:03;;;;;;;8.32;7.45;;;;;;;;;;4963976;28;20033;-61
2022/10/19 02:09:29;;;;;;;7.65;6.68;;;;;;;;;;4964403;28;20026;-62
2022/10/19 02:11:55;;;;;;;9.00;7.18;;;;;;;;;;4956684;28;20034;-61
2022/10/19 02:14:22;;;;;;;8.52;7.50;;;;;;;;;;4957994;28;20042;-61
2022/10/19 02:16:53;;;;;;;8.05;6.97;;;;;;;;;;4957238;28;20062;-61
2022/10/19 02:19:20;;;;;;;8.73;6.97;;;;;;;;;;4954256;28;20055;-62
2022/10/19 02:21:45;;;;;;;13.60;6.90;;;;;;;;;;4959220;28;20065;-61
2022/10/19 02:24:10;;;;;;;8.13;7.32;;;;;;;;;;4954247;28;20026;-62
2022/10/19 02:26:36;;;;;;;8.15;6.38;;;;;;;;;;4958146;28;20620;-60
2022/10/19 02:29:01;;;;;;;7.68;6.88;;;;;;;;;;4959506;28;20089;-62
2022/10/19 02:31:27;;;;;;;8.25;7.38;;;;;;;;;;4957129;28;20050;-61
2022/10/19 02:33:52;;;;;;;6.55;5.85;;;;;;;;;;4955592;28;20050;-61
2022/10/19 02:36:18;;;;;;;7.10;6.40;;;;;;;;;;4956099;28;20342;-61
2022/10/19 02:38:43;;;;;;;7.05;6.35;;;;;;;;;;4956405;28;20078;-62
2022/10/19 02:41:15;;;;;;;6.97;6.38;;;;;;;;;;4954995;28;20082;-62
2022/10/19 02:43:41;;;;;;;7.20;6.50;;;;;;;;;;4954488;28;20039;-62
2022/10/19 02:46:14;;;;;;;7.03;5.70;;;;;;;;;;4959336;28;20113;-62
2022/10/19 02:48:40;;;;;;;6.50;5.80;;;;;;;;;;4952892;28;20518;-62
2022/10/19 02:51:05;;;;;;;6.55;5.85;;;;;;;;;;4942279;28;20398;-62
2022/10/19 02:53:31;;;;;;;6.28;5.68;;;;;;;;;;4956868;28;20035;-63
2022/10/19 02:55:56;;;;;;;6.18;5.57;;;;;;;;;;4955453;28;21067;-64
2022/10/19 02:58:21;;;;;;;6.88;6.18;;;;;;;;;;4952579;28;20193;-63
2022/10/19 03:00:46;;;;;;;6.72;5.65;;;;;;;;;;4958855;28;20027;-63
2022/10/19 03:03:12;;;;;;;7.45;5.88;;;;;;;;;;4958787;28;20133;-62
2022/10/19 03:05:37;;;;;;;6.50;5.90;;;;;;;;;;4958460;28;20039;-64
2022/10/19 03:08:02;;;;;;;7.18;6.18;;;;;;;;;;4956514;28;20042;-63
2022/10/19 03:10:27;;;;;;;6.63;5.93;;;;;;;;;;4957182;28;20038;-63
2022/10/19 03:12:53;;;;;;;6.40;5.70;;;;;;;;;;4958204;28;20554;-62
2022/10/19 03:15:18;;;;;;;6.00;5.40;;;;;;;;;;4956939;28;20030;-62
2022/10/19 03:17:44;;;;;;;7.00;6.30;;;;;;;;;;4955997;28;20630;-62
2022/10/19 03:20:09;;;;;;;7.18;5.47;;;;;;;;;;4957630;28;20070;-63
2022/10/19 03:22:34;;;;;;;9.48;6.40;;;;;;;;;;4958800;28;20386;-61
2022/10/19 03:25:00;;;;;;;6.68;5.65;;;;;;;;;;4956973;28;20090;-67
2022/10/19 03:27:25;;;;;;;6.30;5.53;;;;;;;;;;4959284;28;20118;-66
2022/10/19 03:29:50;;;;;;;8.23;6.43;;;;;;;;;;4958722;28;20109;-59
2022/10/19 03:32:15;;;;;;;8.00;5.82;;;;;;;;;;4957900;28;20420;-61
2022/10/19 03:34:41;;;;;;;6.93;6.22;;;;;;;;;;4959999;28;20583;-62
2022/10/19 03:37:07;;;;;;;7.57;5.55;;;;;;;;;;4958034;28;20416;-61
2022/10/19 03:39:33;;;;;;;6.93;5.65;;;;;;;;;;4957508;28;20035;-64
2022/10/19 03:41:58;;;;;;;7.50;5.65;;;;;;;;;;4957940;28;20019;-62
2022/10/19 03:44:23;;;;;;;6.93;6.10;;;;;;;;;;4956236;28;20061;-62
2022/10/19 03:46:49;;;;;;;7.38;5.63;;;;;;;;;;4956327;28;20034;-62
2022/10/19 03:49:14;;;;;;;7.10;5.15;;;;;;;;;;4956172;28;20037;-62
2022/10/19 03:51:39;;;;;;;5.82;5.22;;;;;;;;;;4958759;28;20635;-62
2022/10/19 03:54:10;;;;;;;6.90;5.80;;;;;;;;;;4955419;28;20118;-62
2022/10/19 03:56:35;;;;;;;6.13;5.53;;;;;;;;;;4955397;28;20414;-62
2022/10/19 03:59:01;;;;;;;6.18;5.57;;;;;;;;;;4955669;28;20685;-62
2022/10/19 04:01:28;;;;;;;6.00;5.40;;;;;;;;;;4956397;28;20385;-62
2022/10/19 04:03:54;;;;;;;6.90;5.93;;;;;;;;;;4958059;28;20120;-64
2022/10/19 04:06:22;;;;;;;5.70;5.10;;;;;;;;;;4959629;28;20027;-61
2022/10/19 04:08:47;;;;;;;7.38;5.28;;;;;;;;;;4959864;28;20041;-63
2022/10/19 04:11:13;;;;;;;5.88;5.13;;;;;;;;;;4958615;28;20031;-61
2022/10/19 04:13:38;;;;;;;6.80;5.45;;;;;;;;;;4960278;28;20073;-63
2022/10/19 04:16:04;;;;;;;6.82;5.75;;;;;;;;;;4959074;28;20430;-62
2022/10/19 04:18:29;;;;;;;5.40;4.90;;;;;;;;;;4963115;28;20458;-62
2022/10/19 04:21:02;;;;;;;7.95;5.95;;;;;;;;;;4962018;28;20034;-64
2022/10/19 04:23:28;;;;;;;6.28;5.32;;;;;;;;;;4959349;28;20070;-63
2022/10/19 04:26:01;;;;;;;6.53;5.57;;;;;;;;;;4961998;28;20061;-63
2022/10/19 04:28:26;;;;;;;9.95;5.82;;;;;;;;;;4962271;28;20035;-63
2022/10/19 04:30:52;;;;;;;6.57;5.78;;;;;;;;;;4960384;28;20539;-62
2022/10/19 04:33:17;;;;;;;10.70;5.82;;;;;;;;;;4958163;28;20062;-72
2022/10/19 04:35:42;;;;;;;10.52;7.88;;;;;;;;;;4955937;28;20411;-70
2022/10/19 04:38:07;;;;;;;9.23;7.43;;;;;;;;;;4958434;28;20706;-69
2022/10/19 04:40:33;;;;;;;7.43;6.30;;;;;;;;;;4962947;28;20409;-70
2022/10/19 04:42:59;;;;;;;8.55;7.15;;;;;;;;;;4962021;28;20027;-69
2022/10/19 04:45:24;;;;;;;14.68;11.18;;;;;;;;;;4961723;28;20038;-71
2022/10/19 04:47:50;;;;;;;14.93;9.07;;;;;;;;;;4960664;28;20031;-70
2022/10/19 04:50:15;;;;;;;12.20;9.40;;;;;;;;;;4961710;28;21049;-72
2022/10/19 04:52:42;;;;;;;7.50;6.75;;;;;;;;;;4961186;28;20729;-72
2022/10/19 04:55:08;;;;;;;12.43;8.50;;;;;;;;;;4961580;28;20037;-72
2022/10/19 04:57:33;;;;;;;19.52;8.48;;;;;;;;;;4964170;28;20042;-72
2022/10/19 04:59:58;;;;;;;14.30;10.23;;;;;;;;;;4962060;28;20034;-60
2022/10/19 05:02:23;;;;;;;12.43;9.25;;;;;;;;;;4961114;28;20042;-69
2022/10/19 05:04:49;;;;;;;21.15;13.52;;;;;;;;;;4961932;28;20580;-64
2022/10/19 05:07:14;;;;;;;19.90;12.40;;;;;;;;;;4964461;28;20500;-64
2022/10/19 05:09:39;;;;;;;23.08;14.80;;;;;;;;;;4966581;28;20046;-71
2022/10/19 05:12:05;;;;;;;18.27;11.68;;;;;;;;;;4963040;28;20042;-71
2022/10/19 05:14:32;;;;;;;16.15;8.60;;;;;;;;;;4965262;28;20027;-70
2022/10/19 05:16:57;;;;;;;15.32;10.73;;;;;;;;;;4963606;28;20023;-72
2022/10/19 05:19:22;;;;;;;16.27;12.35;;;;;;;;;;4965847;28;20374;-71
2022/10/19 05:21:47;;;;;;;11.65;8.93;;;;;;;;;;4968153;28;20169;-74
2022/10/19 05:24:13;;;;;;;8.27;7.07;;;;;;;;;;4964753;28;20031;-71
2022/10/19 05:26:38;;;;;;;8.88;6.57;;;;;;;;;;4965416;28;20034;-71
2022/10/19 05:29:03;;;;;;;7.95;5.65;;;;;;;;;;4965685;28;20048;-70
2022/10/19 05:31:32;;;;;;;7.30;6.13;;;;;;;;;;4964761;28;20062;-70
2022/10/19 05:33:58;;;;;;;6.38;5.50;;;;;;;;;;4965336;28;20037;-71
2022/10/19 05:36:26;;;;;;;8.32;6.45;;;;;;;;;;4966440;28;20054;-74
2022/10/19 05:38:53;;;;;;;7.43;6.13;;;;;;;;;;4967634;28;20038;-71
2022/10/19 05:41:19;;;;;;;8.90;5.75;;;;;;;;;;4964018;28;20037;-71
2022/10/19 05:43:44;;;;;;;7.35;6.47;;;;;;;;;;4964241;28;20121;-71
2022/10/19 05:46:11;;;;;;;7.95;6.60;;;;;;;;;;4966041;28;20470;-72
2022/10/19 05:48:37;;;;;;;8.93;6.82;;;;;;;;;;4965916;28;20030;-72
2022/10/19 05:51:04;;;;;;;7.85;5.85;;;;;;;;;;4967499;28;20361;-70
2022/10/19 05:53:29;;;;;;;7.97;6.85;;;;;;;;;;4967032;28;20193;-72
2022/10/19 05:55:54;;;;;;;6.10;5.22;;;;;;;;;;4966662;28;20484;-70
2022/10/19 05:58:20;;;;;;;7.10;6.28;;;;;;;;;;4967335;28;20031;-71
2022/10/19 06:00:52;;;;;;;6.80;5.65;;;;;;;;;;4966890;28;20508;-71
2022/10/19 06:03:17;;;;;;;7.68;5.65;;;;;;;;;;4967354;28;20077;-72
2022/10/19 06:05:43;;;;;;;6.97;5.85;;;;;;;;;;4966141;28;20105;-71
2022/10/19 06:08:08;;;;;;;9.02;5.43;;;;;;;;;;4961880;28;20058;-72
2022/10/19 06:10:33;;;;;;;8.18;5.72;;;;;;;;;;4964767;28;20117;-71
2022/10/19 06:12:58;;;;;;;7.40;5.40;;;;;;;;;;4966474;28;20179;-72
2022/10/19 06:15:24;;;;;;;6.00;5.40;;;;;;;;;;4966721;28;20471;-72
2022/10/19 06:17:49;;;;;;;6.95;5.43;;;;;;;;;;4966197;28;20473;-71
2022/10/19 06:20:14;;;;;;;7.40;4.68;;;;;;;;;;4966784;28;20137;-72
2022/10/19 06:22:41;;;;;;;7.75;6.05;;;;;;;;;;4967616;28;20047;-71
2022/10/19 06:25:06;;;;;;;7.75;5.55;;;;;;;;;;4964033;28;20043;-72
2022/10/19 06:27:31;;;;;;;6.03;5.43;;;;;;;;;;4964732;28;20742;-71
2022/10/19 06:29:57;;;;;;;7.22;5.05;;;;;;;;;;4961988;28;20037;-70
2022/10/19 06:32:22;;;;;;;6.15;5.53;;;;;;;;;;4965145;28;20026;-71
2022/10/19 06:34:47;;;;;;;5.72;5.15;;;;;;;;;;4964827;28;20141;-71
2022/10/19 06:37:12;;;;;;;8.68;5.75;;;;;;;;;;4959351;28;20496;-72
2022/10/19 06:39:38;;;;;;;5.60;5.10;;;;;;;;;;4964468;28;20062;-73
2022/10/19 06:42:03;;;;;;;7.57;6.88;;;;;;;;;;4966229;28;20473;-71
2022/10/19 06:44:28;;;;;;;5.47;4.97;;;;;;;;;;4966159;28;20544;-71
2022/10/19 06:46:53;;;;;;;6.15;5.65;;;;;;;;;;4963102;28;20081;-70
2022/10/19 06:49:19;;;;;;;6.57;5.97;;;;;;;;;;4964743;28;20049;-72
2022/10/19 06:51:44;;;;;;;5.65;5.15;;;;;;;;;;4963120;28;20564;-71
2022/10/19 06:54:09;;;;;;;5.22;4.78;;;;;;;;;;4961851;28;20481;-70
2022/10/19 06:56:34;;;;;;;5.32;4.80;;;;;;;;;;4962786;28;20038;-71
2022/10/19 06:59:00;;;;;;;6.18;5.55;;;;;;;;;;4964677;28;20043;-71
2022/10/19 07:01:25;;;;;;;5.82;5.32;;;;;;;;;;4964511;28;20505;-72
2022/10/19 07:03:50;;;;;;;5.35;4.85;;;;;;;;;;4964285;28;20046;-71
2022/10/19 07:06:16;;;;;;;5.43;4.93;;;;;;;;;;4963399;28;20552;-70
2022/10/19 07:08:42;;;;;;;5.57;5.07;;;;;;;;;;4967179;28;20485;-70
2022/10/19 07:11:08;;;;;;;5.25;4.75;;;;;;;;;;4964136;28;20424;-71
2022/10/19 07:13:34;;;;;;;5.68;4.70;;;;;;;;;;4963575;28;20037;-70
2022/10/19 07:16:05;;;;;;;4.03;3.70;;;;;;;;;;4961047;28;20507;-71
2022/10/19 07:18:30;;;;;;;5.32;4.20;;;;;;;;;;4961498;28;20049;-72
2022/10/19 07:20:56;;;;;;;4.22;3.92;;;;;;;;;;4964886;28;20027;-71
2022/10/19 07:23:22;;;;;;;5.18;4.78;;;;;;;;;;4964272;28;20086;-70
2022/10/19 07:25:47;;;;;;;4.32;3.92;;;;;;;;;;4961279;28;20580;-70
2022/10/19 07:28:13;;;;;;;4.25;3.85;;;;;;;;;;4962987;28;20031;-69
2022/10/19 07:30:38;;;;;;;4.55;4.15;;;;;;;;;;4963897;28;20031;-71
2022/10/19 07:33:03;;;;;;;4.32;4.03;;;;;;;;;;4964968;28;20027;-71
2022/10/19 07:35:29;;;;;;;5.90;4.05;;;;;;;;;;4964420;28;20470;-70
2022/10/19 07:37:54;;;;;;;4.40;4.00;;;;;;;;;;4961637;28;20034;-72
2022/10/19 07:40:19;;;;;;;4.55;4.07;;;;;;;;;;4964260;28;20034;-70
2022/10/19 07:42:44;;;;;;;4.15;3.83;;;;;;;;;;4964385;28;20389;-71
2022/10/19 07:45:10;;;;;;;5.97;4.20;;;;;;;;;;4967401;28;20518;-69
2022/10/19 07:47:35;;;;;;;4.07;3.78;;;;;;;;;;4968724;28;20041;-70
2022/10/19 07:50:00;;;;;;;4.82;4.43;;;;;;;;;;4966494;28;20061;-66
2022/10/19 07:52:25;;;;;;;4.80;4.40;;;;;;;;;;4967152;28;20492;-72
2022/10/19 07:54:51;;;;;;;4.45;4.05;;;;;;;;;;4969958;28;20022;-71
2022/10/19 07:57:16;;;;;;;3.90;3.58;;;;;;;;;;4967443;28;20033;-70
2022/10/19 07:59:42;;;;;;;4.97;3.92;;;;;;;;;;4966183;28;20042;-71
2022/10/19 08:02:16;;;;;;;5.72;3.75;;;;;;;;;;4967336;28;20031;-71
2022/10/19 08:04:42;;;;;;;4.82;4.28;;;;;;;;;;4965541;28;20494;-71
2022/10/19 08:07:07;;;;;;;6.93;4.13;;;;;;;;;;4966529;28;20041;-70
2022/10/19 08:09:32;;;;;;;3.85;3.47;;;;;;;;;;4964828;28;20059;-71
2022/10/19 08:11:58;;;;;;;4.70;3.70;;;;;;;;;;4964712;28;20027;-71
2022/10/19 08:14:23;;;;;;;3.63;3.33;;;;;;;;;;4967739;28;20062;-71
2022/10/19 08:16:48;;;;;;;4.78;4.38;;;;;;;;;;4965186;28;20457;-71
2022/10/19 08:19:14;;;;;;;3.78;3.47;;;;;;;;;;4968530;28;20497;-71
2022/10/19 08:21:41;;;;;;;4.03;3.72;;;;;;;;;;4964084;28;20577;-71
2022/10/19 08:24:07;;;;;;;3.72;3.40;;;;;;;;;;4963830;28;20030;-71
2022/10/19 08:26:33;;;;;;;4.00;3.33;;;;;;;;;;4967461;28;20026;-69
2022/10/19 08:29:03;;;;;;;3.35;3.15;;;;;;;;;;4965987;28;20031;-68
2022/10/19 08:31:28;;;;;;;3.60;3.30;;;;;;;;;;4966385;28;20033;-71
2022/10/19 08:33:53;;;;;;;3.38;3.08;;;;;;;;;;4967028;28;20030;-69
2022/10/19 08:36:20;;;;;;;3.80;3.42;;;;;;;;;;4963986;28;20046;-68
2022/10/19 08:38:47;;;;;;;3.47;3.13;;;;;;;;;;4964066;28;20138;-69
2022/10/19 08:41:31;;;;;;;2.83;2.58;;;;;;;;;;4963718;28;20061;-69
2022/10/19 08:43:59;;;;;;;3.70;3.30;;;;;;;;;;4963310;28;20031;-69
2022/10/19 08:46:24;;;;;;;3.38;3.05;;;;;;;;;;4962957;28;20201;-69
2022/10/19 08:48:50;;;;;;;2.50;2.30;;;;;;;;;;4963019;28;20448;-70
2022/10/19 08:51:16;;;;;;;2.97;2.75;;;;;;;;;;4961389;28;20034;-69
2022/10/19 08:53:41;;;;;;;2.40;2.22;;;;;;;;;;4964806;28;20034;-69
2022/10/19 08:56:17;;;;;;;2.28;2.17;;;;;;;;;;4963405;28;20412;-70
2022/10/19 08:58:52;;;;;;;2.70;2.50;;;;;;;;;;4962889;28;20038;-70
2022/10/19 09:01:17;;;;;;;;;;;;;;;;;;4965156;28;20027;-67
2022/10/19 09:03:46;;;;;;;2.45;2.35;;;;;;;;;;4962186;28;20356;-71
2022/10/19 09:06:20;;;;;;;2.30;2.10;;;;;;;;;;4964736;28;20515;-70
2022/10/19 09:08:46;;;;;;;2.17;1.92;;;;;;;;;;4966697;28;20129;-71
2022/10/19 09:11:11;;;;;;;2.47;2.30;;;;;;;;;;4967968;28;20092;-70
2022/10/19 09:13:42;;;;;;;2.10;2.00;;;;;;;;;;4966823;28;20034;-71
2022/10/19 09:16:10;;;;;;;2.10;2.00;;;;;;;;;;4962414;28;20054;-73
2022/10/19 09:18:48;;;;;;;2.22;2.10;;;;;;;;;;4963476;28;20085;-70
2022/10/19 09:21:13;;;;;;;2.15;1.95;;;;;;;;;;4965222;28;20085;-70
2022/10/19 09:23:46;;;;;;;3.10;2.47;;;;;;;;;;4966738;28;20490;-70
2022/10/19 09:26:15;;;;;;;3.00;2.70;;;;;;;;;;4964822;28;20445;-70
2022/10/19 09:28:50;;;;;;;2.92;2.72;;;;;;;;;;4963149;28;20058;-70
2022/10/19 09:31:25;;;;;;;2.60;2.40;;;;;;;;;;4962812;28;20370;-70
2022/10/19 09:33:50;;;;;;;;;;;;;;;;;;4964503;28;20030;-70
2022/10/19 09:36:16;;;;;;;2.65;2.45;;;;;;;;;;4962377;28;20001;-70
2022/10/19 09:38:41;;;;;;;3.15;2.85;;;;;;;;;;4962371;28;20090;-70
2022/10/19 09:41:13;;;;;;;3.17;2.97;;;;;;;;;;4965273;28;20046;-70
2022/10/19 09:43:38;;;;;;;2.10;1.90;;;;;;;;;;4964509;28;20054;-71
2022/10/19 09:46:08;;;;;;;2.20;2.10;;;;;;;;;;4963874;28;20161;-67
2022/10/19 09:48:49;;;;;;;2.17;1.70;;;;;;;;;;4962069;28;20062;-70
2022/10/19 09:51:15;;;;;;;6.18;5.78;;;;;;;;;;4963740;28;20038;-69
2022/10/19 09:53:49;;;;;;;2.55;2.00;;;;;;;;;;4958904;28;20456;-69
2022/10/19 09:56:39;;;;;;;2.42;1.83;;;;;;;;;;4963709;28;20439;-72
2022/10/19 09:59:37;;;;;;;2.83;2.25;;;;;;;;;;4957980;28;20116;-69
2022/10/19 10:02:05;;;;;;;1.85;1.75;;;;;;;;;;4964926;28;20042;-70
2022/10/19 10:04:30;;;;;;;2.15;1.73;;;;;;;;;;4966818;28;20036;-69
2022/10/19 10:06:56;;;;;;;1.88;1.50;;;;;;;;;;4966084;28;20368;-68
2022/10/19 10:09:25;;;;;;;1.55;1.45;;;;;;;;;;4963662;28;20081;-70
2022/10/19 10:12:16;;;;;;;1.50;1.40;;;;;;;;;;4965097;28;20043;-70
2022/10/19 10:14:42;;;;;;;1.58;1.48;;;;;;;;;;4963207;28;20035;-70
2022/10/19 10:17:18;;;;;;;1.77;1.67;;;;;;;;;;4966024;28;20406;-70
2022/10/19 10:19:58;;;;;;;1.75;1.60;;;;;;;;;;4966308;28;20398;-71
2022/10/19 10:22:28;;;;;;;1.38;1.27;;;;;;;;;;4964506;28;20043;-71
2022/10/19 10:24:54;;;;;;;1.48;1.48;;;;;;;;;;4963803;28;20114;-70
2022/10/19 10:27:31;;;;;;;1.67;1.58;;;;;;;;;;4961003;28;20030;-70
2022/10/19 10:29:56;;;;;;;2.83;1.80;;;;;;;;;;4959067;28;20026;-69
2022/10/19 10:32:21;;;;;;;2.60;1.98;;;;;;;;;;4961427;28;20026;-70
2022/10/19 10:34:47;;;;;;;4.43;2.00;;;;;;;;;;4960300;28;20041;-68
2022/10/19 10:37:35;;;;;;;1.98;1.88;;;;;;;;;;4961893;28;20085;-69
2022/10/19 10:40:00;;;;;;;2.92;2.22;;;;;;;;;;4958901;28;20413;-70
2022/10/19 10:42:45;;;;;;;3.35;2.78;;;;;;;;;;4960505;28;20022;-70
2022/10/19 10:45:25;;;;;;;2.50;2.30;;;;;;;;;;4962023;28;20565;-70
2022/10/19 10:47:50;;;;;;;2.55;2.17;;;;;;;;;;4960562;28;20287;-71
2022/10/19 10:50:20;;;;;;;2.55;2.20;;;;;;;;;;4961767;28;20045;-67
2022/10/19 10:52:56;;;;;;;2.60;2.40;;;;;;;;;;4962540;28;20590;-72
2022/10/19 10:55:21;;;;;;;2.60;2.33;;;;;;;;;;4960340;28;20023;-72
2022/10/19 10:57:48;;;;;;;2.20;2.10;;;;;;;;;;4962513;28;20555;-69
2022/10/19 11:00:18;;;;;;;2.50;2.30;;;;;;;;;;4964077;28;20035;-69
2022/10/19 11:02:50;;;;;;;3.25;2.45;;;;;;;;;;4964802;28;20669;-72
2022/10/19 11:05:16;;;;;;;2.85;2.65;;;;;;;;;;4967293;28;20082;-72
2022/10/19 11:07:45;;;;;;;2.88;2.67;;;;;;;;;;4962901;28;20034;-72
2022/10/19 11:10:15;;;;;;;2.90;2.60;;;;;;;;;;4962148;28;20520;-72
2022/10/19 11:12:45;;;;;;;2.50;2.30;;;;;;;;;;4968870;28;20027;-73
2022/10/19 11:15:14;;;;;;;3.08;2.53;;;;;;;;;;4966847;28;20043;-68
2022/10/19 11:17:45;;;;;;;2.72;2.53;;;;;;;;;;4964308;28;20051;-70
2022/10/19 11:20:13;;;;;;;2.13;2.03;;;;;;;;;;4966489;28;20126;-69
2022/10/19 11:22:51;;;;;;;3.25;2.95;;;;;;;;;;4969019;28;20142;-68
2022/10/19 11:25:29;;;;;;;2.90;2.65;;;;;;;;;;4967227;28;20023;-69
2022/10/19 11:28:01;;;;;;;2.40;2.20;;;;;;;;;;4965117;28;20145;-64
2022/10/19 11:30:30;;;;;;;2.92;2.53;;;;;;;;;;4964956;28;20023;-71
2022/10/19 11:33:19;;;;;;;3.40;2.50;;;;;;;;;;4965419;28;20533;-71
2022/10/19 11:35:53;;;;;;;2.97;2.70;;;;;;;;;;4964329;28;20030;-71
2022/10/19 11:38:24;;;;;;;2.47;2.28;;;;;;;;;;4965106;28;20047;-71
2022/10/19 11:40:59;;;;;;;2.95;2.70;;;;;;;;;;4966325;28;20122;-72
2022/10/19 11:43:29;;;;;;;3.17;2.50;;;;;;;;;;4966210;28;20034;-71
2022/10/19 11:45:57;;;;;;;2.85;2.53;;;;;;;;;;4965409;28;20027;-71
2022/10/19 11:48:29;;;;;;;2.17;2.08;;;;;;;;;;4964976;28;20030;-70
2022/10/19 11:51:00;;;;;;;2.80;2.40;;;;;;;;;;4963954;28;20031;-73
2022/10/19 11:53:44;;;;;;;2.72;2.60;;;;;;;;;;4967737;28;20381;-70
2022/10/19 11:56:17;;;;;;;2.72;2.53;;;;;;;;;;4968849;28;20031;-72
2022/10/19 11:58:42;;;;;;;2.95;2.75;;;;;;;;;;4966793;28;20046;-70
2022/10/19 12:01:15;;;;;;;2.67;2.47;;;;;;;;;;4968991;28;20034;-73
2022/10/19 12:03:43;;;;;;;3.40;3.10;;;;;;;;;;4967643;28;20499;-70
2022/10/19 12:06:34;;;;;;;2.97;2.67;;;;;;;;;;4965283;28;20027;-71
2022/10/19 12:09:12;;;;;;;3.05;2.38;;;;;;;;;;4962444;28;20487;-71
2022/10/19 12:12:01;;;;;;;2.83;2.63;;;;;;;;;;4967167;28;20531;-71
2022/10/19 12:14:46;;;;;;;2.90;2.30;;;;;;;;;;4966086;28;20026;-70
2022/10/19 12:17:39;;;;;;;2.65;2.45;;;;;;;;;;4963743;28;20031;-72
2022/10/19 12:20:25;;;;;;;3.13;2.90;;;;;;;;;;4967341;28;20030;-72
2022/10/19 12:22:50;;;;;;;5.45;3.10;;;;;;;;;;4966615;28;20057;-73
2022/10/19 12:25:16;;;;;;;2.47;2.28;;;;;;;;;;4965719;28;20074;-72
2022/10/19 12:27:41;;;;;;;2.42;2.22;;;;;;;;;;4964688;28;20033;-70
2022/10/19 12:30:16;;;;;;;2.40;2.20;;;;;;;;;;4964900;28;20478;-71
2022/10/19 12:32:42;;;;;;;;;;;;;;;;;;4964637;28;20547;-71
2022/10/19 12:35:16;;;;;;;5.75;2.88;;;;;;;;;;4963291;28;19914;-71
2022/10/19 12:37:53;;;;;;;2.42;2.22;;;;;;;;;;4962652;28;20466;-71
2022/10/19 12:40:25;;;;;;;2.85;2.65;;;;;;;;;;4964556;28;20054;-71
2022/10/19 12:42:57;;;;;;;3.13;2.67;;;;;;;;;;4967949;28;20154;-71
2022/10/19 12:45:22;;;;;;;2.88;2.50;;;;;;;;;;4965064;28;20062;-71
2022/10/19 12:48:06;;;;;;;3.45;2.08;;;;;;;;;;4962847;28;20034;-71
2022/10/19 12:50:52;;;;;;;2.95;2.75;;;;;;;;;;4963740;28;20497;-70
2022/10/19 12:53:24;;;;;;;2.42;2.22;;;;;;;;;;4963957;28;20044;-70
2022/10/19 12:56:01;;;;;;;2.55;2.38;;;;;;;;;;4965222;28;20409;-71
2022/10/19 12:58:29;;;;;;;2.20;2.10;;;;;;;;;;4962837;28;20125;-69
2022/10/19 13:01:02;;;;;;;2.42;2.22;;;;;;;;;;4979061;28;20034;-71
2022/10/19 13:03:35;;;;;;;2.70;2.58;;;;;;;;;;4964168;28;20069;-71
2022/10/19 13:06:03;;;;;;;3.10;2.88;;;;;;;;;;4963512;28;20042;-72
2022/10/19 13:08:37;;;;;;;2.92;2.72;;;;;;;;;;4977648;28;20462;-72
2022/10/19 13:11:07;;;;;;;2.90;2.70;;;;;;;;;;4962805;28;20041;-69
2022/10/19 13:13:51;;;;;;;2.90;2.50;;;;;;;;;;4965921;28;20027;-69
2022/10/19 13:16:28;;;;;;;3.13;2.92;;;;;;;;;;4964900;28;20031;-64
2022/10/19 13:18:56;;;;;;;3.10;2.80;;;;;;;;;;4964159;28;20690;-65
2022/10/19 13:21:40;;;;;;;4.57;3.00;;;;;;;;;;4962233;28;20533;-62
2022/10/19 13:24:23;;;;;;;9.98;3.00;;;;;;;;;;4965129;28;20097;-63
2022/10/19 13:27:12;;;;;;;3.10;2.80;;;;;;;;;;4966381;28;20478;-62
2022/10/19 13:29:37;;;;;;;3.55;3.00;;;;;;;;;;4961947;28;20069;-60
2022/10/19 13:32:21;;;;;;;3.67;3.33;;;;;;;;;;4963818;28;20114;-60
2022/10/19 13:34:47;;;;;;;3.45;3.15;;;;;;;;;;4962099;28;20104;-61
2022/10/19 13:37:15;;;;;;;3.38;3.08;;;;;;;;;;4961355;28;20598;-62
2022/10/19 13:39:40;;;;;;;3.20;3.00;;;;;;;;;;4964452;28;20043;-64
2022/10/19 13:42:21;;;;;;;3.85;3.47;;;;;;;;;;4964073;28;20439;-64
2022/10/19 13:44:46;;;;;;;3.65;3.42;;;;;;;;;;4965394;28;20026;-71
2022/10/19 13:47:30;;;;;;;4.50;3.25;;;;;;;;;;4966289;28;20026;-67
2022/10/19 13:50:14;;;;;;;3.22;2.92;;;;;;;;;;4962064;28;20031;-68
2022/10/19 13:52:50;;;;;;;3.05;2.75;;;;;;;;;;4966578;28;20442;-66
2022/10/19 13:55:33;;;;;;;3.47;3.17;;;;;;;;;;4966135;28;20026;-66
2022/10/19 13:58:02;;;;;;;3.20;2.95;;;;;;;;;;4964194;28;20030;-68
2022/10/19 14:00:31;;;;;;;3.13;2.92;;;;;;;;;;4964543;28;20624;-67
2022/10/19 14:03:02;;;;;;;3.83;3.53;;;;;;;;;;4963726;28;20037;-68
2022/10/19 14:05:33;;;;;;;5.38;3.63;;;;;;;;;;4963004;28;20030;-66
2022/10/19 14:08:17;;;;;;;5.30;3.90;;;;;;;;;;4962824;28;20034;-67
2022/10/19 14:10:42;;;;;;;3.70;3.35;;;;;;;;;;4960492;28;20045;-65
2022/10/19 14:13:12;;;;;;;7.32;4.13;;;;;;;;;;4960586;28;20035;-65
2022/10/19 14:15:37;;;;;;;4.07;3.78;;;;;;;;;;4964548;28;20046;-66
2022/10/19 14:18:02;;;;;;;4.10;3.72;;;;;;;;;;4964848;28;20050;-70
2022/10/19 14:20:27;;;;;;;4.05;3.75;;;;;;;;;;4963107;28;20031;-69
2022/10/19 14:22:53;;;;;;;6.10;3.85;;;;;;;;;;4965671;28;20047;-71
2022/10/19 14:25:19;;;;;;;4.00;3.60;;;;;;;;;;4967181;28;20034;-70
2022/10/19 14:27:45;;;;;;;4.13;3.75;;;;;;;;;;4965664;28;20026;-69
2022/10/19 14:30:24;;;;;;;5.82;3.42;;;;;;;;;;4964966;28;20030;-69
2022/10/19 14:32:50;;;;;;;3.70;3.45;;;;;;;;;;4964618;28;20019;-68
2022/10/19 14:35:23;;;;;;;3.25;3.03;;;;;;;;;;4962279;28;20034;-69
2022/10/19 14:37:49;;;;;;;4.32;3.92;;;;;;;;;;4964009;28;20023;-67
2022/10/19 14:40:20;;;;;;;8.00;3.90;;;;;;;;;;4964706;28;20077;-69
2022/10/19 14:42:47;;;;;;;4.40;4.10;;;;;;;;;;4963163;28;20460;-68
2022/10/19 14:45:14;;;;;;;3.90;3.60;;;;;;;;;;4961240;28;20041;-68
2022/10/19 14:47:59;;;;;;;4.88;4.53;;;;;;;;;;4960015;28;20030;-68
2022/10/19 14:50:39;;;;;;;4.43;4.03;;;;;;;;;;4961669;28;20027;-69
2022/10/19 14:53:19;;;;;;;4.85;4.40;;;;;;;;;;4964469;28;20197;-68